Etusivu
METAR-TAF:

METAR-TAF

Lentoasemat :

Mécheria, Algeria

Leveyspiiri: 34-56N, Pituuspiiri: 000-26W, korkeus merenpinnasta: 1149 m

Tämänhetkinen sää

Tämä raportti tehtiin 42 minuuttia sitten, kello 07.00 UTC
Tuuli 14 kn pohjoisesta/koillisesta
Lämpötila 11°C
Kosteus 58%
Ilmanpaine 1013 hPa
Näkyvyys: 8000 m
Muutamia pilviä 3000 ft:n korkeudessa
Hajanaisia pilviä 10000 ft:n korkeudessa

METAR: DAAY 210700Z 02014KT 8000 FEW030 SCT100 11/03 Q1013

Aika: 08:42 (07:42 UTC)

Sääennuste

Tämä raportti tehtiin 2 tuntia ja 42 minuuttia sitten, kello 05.00 UTC
Ennuste voimassa 21. päivästä klo 06 UTC - 21. päivään klo 15 UTC
Tuuli 12 kn pohjoisesta
Näkyvyys: 8000 m
Muutamia pilviä 3000 ft:n korkeudessa
Hajanaisia pilviä 10000 ft:n korkeudessa
Tulossa
21. päivästä klo 08 UTC - 21. päivään klo 11 UTC
Tuuli 12 kn idästä/kaakosta

TAF: DAAY 210500Z 2106/2115 01012KT 8000 FEW030 SCT100 BECMG 2108/2111 11012KT

Säähavainnot ja -ennusteet yli 4000 lentoasemalta (METAR- ja TAF-raportit).

Käytössä olevat sääasemat on merkitty karttaan keltaisilla ja punaisilla pisteillä.

Aseta hiiri pisteen päälle nähdäksesi sääaseman nimen.

Klikkaa sitten nähdäksesi säähavainnot ja -ennusteet.

Kartan vaihtaminen: klikkaa mustalla rastilla varustettuja vihreitä pisteitä, niin voit zoomata sisään; viivalla varustettua vihreää pistettä, niin voit zoomata ulos tai vihreitä nuolia, niin pääset viereisille kartoille.


METAR-TAF: